createdAt,value
2019-03-15T00:00:56.808Z,997.28
2019-03-15T00:01:56.726Z,997.27
2019-03-15T00:02:56.794Z,997.31
2019-03-15T00:03:56.705Z,997.32
2019-03-15T00:04:56.707Z,997.32
2019-03-15T00:05:56.691Z,997.37
2019-03-15T00:06:56.719Z,997.42
2019-03-15T00:07:56.660Z,997.41
2019-03-15T00:08:57.370Z,997.42
2019-03-15T00:09:56.641Z,997.42
2019-03-15T00:11:02.103Z,997.47
2019-03-15T00:11:56.615Z,997.49
2019-03-15T00:13:12.409Z,997.51
2019-03-15T00:13:56.595Z,997.49
2019-03-15T00:15:12.648Z,997.56
2019-03-15T00:15:56.581Z,997.55
2019-03-15T00:16:56.585Z,997.57
2019-03-15T00:17:56.551Z,997.56
2019-03-15T00:18:56.598Z,997.55
2019-03-15T00:19:56.527Z,997.58
2019-03-15T00:20:57.560Z,997.57
2019-03-15T00:21:56.516Z,997.56
2019-03-15T00:22:56.525Z,997.58
2019-03-15T00:23:56.487Z,997.62
2019-03-15T00:24:56.538Z,997.59
2019-03-15T00:25:56.476Z,997.62
2019-03-15T00:26:56.551Z,997.63
2019-03-15T00:27:56.442Z,997.71
2019-03-15T00:28:56.461Z,997.72
2019-03-15T00:29:56.419Z,997.61
2019-03-15T00:30:56.504Z,997.62
2019-03-15T00:31:56.397Z,997.71
2019-03-15T00:32:56.490Z,997.63
2019-03-15T00:33:56.377Z,997.74
2019-03-15T00:34:56.401Z,997.75
2019-03-15T00:35:56.365Z,997.68
2019-03-15T00:36:56.418Z,997.71
2019-03-15T00:37:56.639Z,997.75
2019-03-15T00:38:56.427Z,997.70
2019-03-15T00:39:56.310Z,997.77
2019-03-15T00:40:56.367Z,997.75
2019-03-15T00:41:56.287Z,997.72
2019-03-15T00:42:56.359Z,997.67
2019-03-15T00:43:56.267Z,997.65
2019-03-15T00:44:56.367Z,997.77
2019-03-15T00:45:56.256Z,997.75
2019-03-15T00:46:56.277Z,997.83
2019-03-15T00:47:56.223Z,997.85
2019-03-15T00:48:56.290Z,997.86
2019-03-15T00:49:56.202Z,997.83
2019-03-15T00:50:56.231Z,997.84
2019-03-15T00:51:56.182Z,997.91
2019-03-15T00:52:56.216Z,997.77
2019-03-15T00:53:56.158Z,997.87
2019-03-15T00:54:56.229Z,997.93
2019-03-15T00:55:56.146Z,997.89
2019-03-15T00:56:56.144Z,997.87
2019-03-15T00:57:56.123Z,997.96
2019-03-15T00:58:57.179Z,997.96
2019-03-15T00:59:56.091Z,997.97
2019-03-15T01:00:56.196Z,997.98
2019-03-15T01:01:56.074Z,997.94
2019-03-15T01:02:56.081Z,997.97
2019-03-15T01:03:56.047Z,997.88
2019-03-15T01:04:56.093Z,997.84
2019-03-15T01:05:56.055Z,997.86
2019-03-15T01:06:57.032Z,997.85
2019-03-15T01:07:56.031Z,997.87
2019-03-15T01:08:56.019Z,997.94
2019-03-15T01:09:55.985Z,998.01
2019-03-15T01:10:56.033Z,998.00
2019-03-15T01:11:55.973Z,997.97
2019-03-15T01:12:56.050Z,997.99
2019-03-15T01:13:55.940Z,998.02
2019-03-15T01:14:55.957Z,997.98
2019-03-15T01:15:55.918Z,998.09
2019-03-15T01:16:56.002Z,998.08
2019-03-15T01:17:55.897Z,998.09
2019-03-15T01:18:55.985Z,998.09
2019-03-15T01:19:55.875Z,998.09
2019-03-15T01:20:55.904Z,998.00
2019-03-15T01:21:55.867Z,998.02
2019-03-15T01:22:55.909Z,997.99
2019-03-15T01:23:55.834Z,997.98
2019-03-15T01:24:55.924Z,997.94
2019-03-15T01:25:55.810Z,998.00
2019-03-15T01:26:55.865Z,998.01
2019-03-15T01:27:55.788Z,998.02
2019-03-15T01:28:55.848Z,998.06
2019-03-15T01:29:55.767Z,998.08
2019-03-15T01:30:55.863Z,998.04
2019-03-15T01:31:55.758Z,998.02
2019-03-15T01:32:55.774Z,998.05
2019-03-15T01:33:55.723Z,998.06
2019-03-15T01:34:55.795Z,998.03
2019-03-15T01:35:55.703Z,998.12
2019-03-15T01:36:55.740Z,998.06
2019-03-15T01:37:55.685Z,998.06
2019-03-15T01:38:55.712Z,998.07
2019-03-15T01:39:55.659Z,998.07
2019-03-15T01:40:55.726Z,998.04
2019-03-15T01:41:56.424Z,998.11
2019-03-15T01:42:55.740Z,998.14
2019-03-15T01:43:55.618Z,998.16
2019-03-15T01:44:57.699Z,998.10
2019-03-15T01:45:55.597Z,998.11
2019-03-15T01:46:56.615Z,998.14
2019-03-15T01:47:55.575Z,998.25
2019-03-15T01:48:55.577Z,998.13
2019-03-15T01:49:55.553Z,998.15
2019-03-15T01:50:55.592Z,998.10
2019-03-15T01:51:55.543Z,998.12
2019-03-15T01:52:58.487Z,998.10
2019-03-15T01:53:55.510Z,998.06
2019-03-15T01:54:55.515Z,998.00
2019-03-15T01:55:55.490Z,998.04
2019-03-15T01:56:55.559Z,998.12
2019-03-15T01:57:55.474Z,998.11
2019-03-15T01:58:55.543Z,998.21
2019-03-15T01:59:55.444Z,998.15
2019-03-15T02:00:55.455Z,998.19
2019-03-15T02:01:55.461Z,998.21
2019-03-15T02:02:55.468Z,998.21
2019-03-15T02:03:55.403Z,998.21
2019-03-15T02:04:55.482Z,998.19
2019-03-15T02:05:55.388Z,998.19
2019-03-15T02:06:55.423Z,998.16
2019-03-15T02:07:55.361Z,998.17
2019-03-15T02:08:55.407Z,998.12
2019-03-15T02:09:55.337Z,998.18
2019-03-15T02:10:55.421Z,998.14
2019-03-15T02:11:55.601Z,998.18
2019-03-15T02:12:55.335Z,998.16
2019-03-15T02:13:55.291Z,998.13
2019-03-15T02:14:55.345Z,998.11
2019-03-15T02:15:55.272Z,998.16
2019-03-15T02:16:55.285Z,998.12
2019-03-15T02:17:55.248Z,998.11
2019-03-15T02:18:55.272Z,998.11
2019-03-15T02:19:55.226Z,998.11
2019-03-15T02:20:55.283Z,998.13
2019-03-15T02:21:55.217Z,998.12
2019-03-15T02:22:55.298Z,998.07
2019-03-15T02:23:55.183Z,998.08
2019-03-15T02:24:55.211Z,998.08
2019-03-15T02:25:55.162Z,998.05
2019-03-15T02:26:55.252Z,998.06
2019-03-15T02:27:55.140Z,998.13
2019-03-15T02:28:55.237Z,998.10
2019-03-15T02:29:55.122Z,998.07
2019-03-15T02:30:55.147Z,998.01
2019-03-15T02:31:55.108Z,998.10
2019-03-15T02:32:55.164Z,998.02
2019-03-15T02:33:55.075Z,997.85
2019-03-15T02:34:56.096Z,997.95
2019-03-15T02:35:55.060Z,997.87
2019-03-15T02:36:55.182Z,997.91
2019-03-15T02:37:55.031Z,997.94
2019-03-15T02:38:55.104Z,997.99
2019-03-15T02:39:55.011Z,997.98
2019-03-15T02:40:55.011Z,998.00
2019-03-15T02:41:55.409Z,997.85
2019-03-15T02:42:55.053Z,997.97
2019-03-15T02:43:54.968Z,997.95
2019-03-15T02:44:55.039Z,997.88
2019-03-15T02:45:54.946Z,997.88
2019-03-15T02:46:55.291Z,997.91
2019-03-15T02:47:54.944Z,997.90
2019-03-15T02:48:54.963Z,998.01
2019-03-15T02:49:54.905Z,998.00
2019-03-15T02:50:56.187Z,998.00
2019-03-15T02:51:54.881Z,997.93
2019-03-15T02:52:54.998Z,998.04
2019-03-15T02:53:54.865Z,997.96
2019-03-15T02:54:54.903Z,997.98
2019-03-15T02:55:54.836Z,997.98
2019-03-15T02:56:54.917Z,997.96
2019-03-15T02:57:54.827Z,997.96
2019-03-15T02:58:54.829Z,997.97
2019-03-15T02:59:54.801Z,997.96
2019-03-15T03:00:54.843Z,997.99
2019-03-15T03:01:54.772Z,997.95
2019-03-15T03:02:54.895Z,998.03
2019-03-15T03:03:54.751Z,998.04
2019-03-15T03:04:54.767Z,998.02
2019-03-15T03:05:54.741Z,998.06
2019-03-15T03:06:54.993Z,998.04
2019-03-15T03:07:54.723Z,998.05
2019-03-15T03:08:54.797Z,998.03
2019-03-15T03:09:54.711Z,998.06
2019-03-15T03:10:56.002Z,998.08
2019-03-15T03:11:54.663Z,998.12
2019-03-15T03:12:54.752Z,998.10
2019-03-15T03:13:54.645Z,998.15
2019-03-15T03:14:54.737Z,998.12
2019-03-15T03:15:54.621Z,998.16
2019-03-15T03:17:01.609Z,998.13
2019-03-15T03:17:54.616Z,998.17
2019-03-15T03:20:03.512Z,998.29
2019-03-15T03:21:03.427Z,998.24
2019-03-15T03:22:03.492Z,998.24
2019-03-15T03:23:04.018Z,998.28
2019-03-15T03:24:03.499Z,998.22
2019-03-15T03:25:03.374Z,998.23
2019-03-15T03:26:03.410Z,998.22
2019-03-15T03:27:03.352Z,998.20
2019-03-15T03:28:03.453Z,998.23
2019-03-15T03:29:03.330Z,998.21
2019-03-15T03:30:03.342Z,998.20
2019-03-15T03:31:03.314Z,998.17
2019-03-15T03:32:03.357Z,998.22
2019-03-15T03:33:03.303Z,998.21
2019-03-15T03:34:03.385Z,998.22
2019-03-15T03:35:03.279Z,998.19
2019-03-15T03:36:03.284Z,998.14
2019-03-15T03:37:03.249Z,998.11
2019-03-15T03:38:03.314Z,998.08
2019-03-15T03:39:03.230Z,998.10
2019-03-15T03:40:03.304Z,998.10
2019-03-15T03:41:03.212Z,998.09
2019-03-15T03:42:03.213Z,998.07
2019-03-15T03:43:03.190Z,998.07
2019-03-15T03:44:03.228Z,998.08
2019-03-15T03:45:03.159Z,998.09
2019-03-15T03:46:03.240Z,998.03
2019-03-15T03:47:03.135Z,998.05
2019-03-15T03:48:03.180Z,997.99
2019-03-15T03:49:03.119Z,998.06
2019-03-15T03:50:03.165Z,998.02
2019-03-15T03:51:03.116Z,998.08
2019-03-15T03:52:04.104Z,998.01
2019-03-15T03:53:03.111Z,997.99
2019-03-15T03:54:11.078Z,997.90
2019-03-15T03:55:03.054Z,997.94
2019-03-15T03:56:04.134Z,997.99
2019-03-15T03:57:03.027Z,998.01
2019-03-15T03:58:04.039Z,998.09
2019-03-15T03:59:03.018Z,998.06
2019-03-15T04:00:03.088Z,998.11
2019-03-15T04:01:02.988Z,998.05
2019-03-15T04:02:03.044Z,998.04
2019-03-15T04:03:02.968Z,998.06
2019-03-15T04:04:02.989Z,998.02
2019-03-15T04:05:02.939Z,998.08
2019-03-15T04:06:03.064Z,998.09
2019-03-15T04:07:02.918Z,998.10
2019-03-15T04:08:02.985Z,998.04
2019-03-15T04:09:02.910Z,998.06
2019-03-15T04:10:05.456Z,998.04
2019-03-15T04:11:02.880Z,997.99
2019-03-15T04:12:02.908Z,998.02
2019-03-15T04:13:02.854Z,997.98
2019-03-15T04:14:02.951Z,997.91
2019-03-15T04:15:02.836Z,997.89
2019-03-15T04:16:02.975Z,997.88
2019-03-15T04:17:02.809Z,997.86
2019-03-15T04:18:02.849Z,997.86
2019-03-15T04:19:02.806Z,997.83
2019-03-15T04:20:02.861Z,997.86
2019-03-15T04:21:02.767Z,997.88
2019-03-15T04:22:02.770Z,997.88
2019-03-15T04:23:02.746Z,997.92
2019-03-15T04:24:02.833Z,997.95
2019-03-15T04:25:02.723Z,997.96
2019-03-15T04:26:02.798Z,997.91
2019-03-15T04:27:02.701Z,997.95
2019-03-15T04:28:02.710Z,997.95
2019-03-15T04:29:02.691Z,997.99
2019-03-15T04:30:02.725Z,998.02
2019-03-15T04:31:02.660Z,998.06
2019-03-15T04:32:02.737Z,998.05
2019-03-15T04:33:02.638Z,998.10
2019-03-15T04:34:02.685Z,998.10
2019-03-15T04:35:02.617Z,998.09
2019-03-15T04:36:02.661Z,998.05
2019-03-15T04:37:02.594Z,998.02
2019-03-15T04:38:10.562Z,998.07
2019-03-15T04:39:02.586Z,998.17
2019-03-15T04:40:10.576Z,998.13
2019-03-15T04:41:02.550Z,998.12
2019-03-15T04:42:03.625Z,998.16
2019-03-15T04:43:02.530Z,998.06
2019-03-15T04:44:02.542Z,998.12
2019-03-15T04:45:02.509Z,998.09
2019-03-15T04:46:02.526Z,998.12
2019-03-15T04:47:02.488Z,998.13
2019-03-15T04:48:02.539Z,998.14
2019-03-15T04:49:02.483Z,998.13
2019-03-15T04:50:02.554Z,998.15
2019-03-15T04:51:02.451Z,998.14
2019-03-15T04:52:02.464Z,998.13
2019-03-15T04:53:02.426Z,998.09
2019-03-15T04:54:05.576Z,998.12
2019-03-15T04:55:02.398Z,998.05
2019-03-15T04:56:02.494Z,998.04
2019-03-15T04:57:02.379Z,998.05
2019-03-15T04:58:02.405Z,997.96
2019-03-15T04:59:02.380Z,997.96
2019-03-15T05:00:02.418Z,997.97
2019-03-15T05:01:02.332Z,997.96
2019-03-15T05:02:02.430Z,997.94
2019-03-15T05:03:02.314Z,997.87
2019-03-15T05:04:02.345Z,997.93
2019-03-15T05:05:02.314Z,997.92
2019-03-15T05:06:03.843Z,997.92
2019-03-15T05:07:02.267Z,997.96
2019-03-15T05:08:02.372Z,997.92
2019-03-15T05:09:02.244Z,997.97
2019-03-15T05:10:02.318Z,997.99
2019-03-15T05:11:02.259Z,997.97
2019-03-15T05:12:02.294Z,997.94
2019-03-15T05:13:02.203Z,997.92
2019-03-15T05:14:02.206Z,997.90
2019-03-15T05:15:02.195Z,997.94
2019-03-15T05:16:02.219Z,997.92
2019-03-15T05:17:02.160Z,997.90
2019-03-15T05:18:02.234Z,997.98
2019-03-15T05:19:02.140Z,998.00
2019-03-15T05:20:02.174Z,998.02
2019-03-15T05:21:02.115Z,997.92
2019-03-15T05:22:02.158Z,997.97
2019-03-15T05:23:02.100Z,997.94
2019-03-15T05:24:02.175Z,997.92
2019-03-15T05:25:02.097Z,997.79
2019-03-15T05:26:02.084Z,997.79
2019-03-15T05:27:02.052Z,997.83
2019-03-15T05:28:09.574Z,997.85
2019-03-15T05:29:02.030Z,997.89
2019-03-15T05:30:03.062Z,997.90
2019-03-15T05:31:02.010Z,997.87
2019-03-15T05:32:02.023Z,997.93
2019-03-15T05:33:01.990Z,997.94
2019-03-15T05:34:02.039Z,997.88
2019-03-15T05:35:01.977Z,997.81
2019-03-15T05:36:02.050Z,997.75
2019-03-15T05:37:02.030Z,997.75
2019-03-15T05:38:01.987Z,997.66
2019-03-15T05:39:01.936Z,997.69
2019-03-15T05:40:02.003Z,997.71
2019-03-15T05:41:01.901Z,997.70
2019-03-15T05:42:01.992Z,997.69
2019-03-15T05:43:01.878Z,997.74
2019-03-15T05:44:01.903Z,997.69
2019-03-15T05:45:01.860Z,997.67
2019-03-15T05:46:01.943Z,997.66
2019-03-15T05:47:01.836Z,997.59
2019-03-15T05:48:01.933Z,997.60
2019-03-15T05:49:01.815Z,997.57
2019-03-15T05:50:01.841Z,997.56
2019-03-15T05:51:01.808Z,997.51
2019-03-15T05:52:01.854Z,997.57
2019-03-15T05:53:01.770Z,997.53
2019-03-15T05:54:01.867Z,997.46
2019-03-15T05:55:01.754Z,997.50
2019-03-15T05:56:01.809Z,997.49
2019-03-15T05:57:01.730Z,997.51
2019-03-15T05:58:01.790Z,997.51
2019-03-15T05:59:01.706Z,997.52
2019-03-15T06:00:01.805Z,997.46
2019-03-15T06:01:01.699Z,997.42
2019-03-15T06:02:01.745Z,997.49
2019-03-15T06:03:01.666Z,997.47
2019-03-15T06:04:01.732Z,997.48
2019-03-15T06:05:01.640Z,997.45
2019-03-15T06:06:01.641Z,997.43
2019-03-15T06:07:01.619Z,997.50
2019-03-15T06:08:01.687Z,997.55
2019-03-15T06:09:01.621Z,997.50
2019-03-15T06:10:02.695Z,997.45
2019-03-15T06:11:01.576Z,997.53
2019-03-15T06:12:01.580Z,997.47
2019-03-15T06:13:01.567Z,997.47
2019-03-15T06:14:01.595Z,997.46
2019-03-15T06:15:01.531Z,997.43
2019-03-15T06:16:01.612Z,997.47
2019-03-15T06:17:01.511Z,997.44
2019-03-15T06:18:01.570Z,997.49
2019-03-15T06:19:01.487Z,997.60
2019-03-15T06:20:01.538Z,997.55
2019-03-15T06:21:01.472Z,997.49
2019-03-15T06:22:01.614Z,997.60
2019-03-15T06:23:01.456Z,997.56
2019-03-15T06:24:01.459Z,997.61
2019-03-15T06:25:01.433Z,997.63
2019-03-15T06:26:01.472Z,997.51
2019-03-15T06:27:01.423Z,997.44
2019-03-15T06:28:01.519Z,997.47
2019-03-15T06:29:01.892Z,997.49
2019-03-15T06:30:01.400Z,997.54
2019-03-15T06:31:01.426Z,997.50
2019-03-15T06:32:01.415Z,997.42
2019-03-15T06:33:01.346Z,997.39
2019-03-15T06:34:01.425Z,997.38
2019-03-15T06:35:01.317Z,997.28
2019-03-15T06:36:01.349Z,997.32
2019-03-15T06:37:01.293Z,997.31
2019-03-15T06:38:01.378Z,997.37
2019-03-15T06:39:01.270Z,997.32
2019-03-15T06:40:01.457Z,997.32
2019-03-15T06:41:01.250Z,997.28
2019-03-15T06:42:01.292Z,997.23
2019-03-15T06:43:01.239Z,997.27
2019-03-15T06:44:01.295Z,997.23
2019-03-15T06:45:01.207Z,997.18
2019-03-15T06:46:01.318Z,997.11
2019-03-15T06:47:01.183Z,997.21
2019-03-15T06:48:01.251Z,997.16
2019-03-15T06:49:01.178Z,997.16
2019-03-15T06:50:01.241Z,997.14
2019-03-15T06:51:01.147Z,997.09
2019-03-15T06:52:01.256Z,997.09
2019-03-15T06:53:01.149Z,997.05
2019-03-15T06:54:10.901Z,997.14
2019-03-15T06:55:05.098Z,997.08
2019-03-15T06:56:02.212Z,997.15
2019-03-15T06:57:01.072Z,997.16
2019-03-15T06:58:08.155Z,997.19
2019-03-15T06:59:01.070Z,997.21
2019-03-15T07:00:08.581Z,997.19
2019-03-15T07:01:01.030Z,997.19
2019-03-15T07:02:03.068Z,997.15
2019-03-15T07:03:01.035Z,997.10
2019-03-15T07:04:01.049Z,997.11
2019-03-15T07:05:00.990Z,997.10
2019-03-15T07:06:01.056Z,997.06
2019-03-15T07:07:00.967Z,996.98
2019-03-15T07:08:01.062Z,997.03
2019-03-15T07:09:00.970Z,996.98
2019-03-15T07:10:00.969Z,996.96
2019-03-15T07:11:00.927Z,996.93
2019-03-15T07:12:09.451Z,996.97
2019-03-15T07:13:01.899Z,996.88
2019-03-15T07:14:01.036Z,996.96
2019-03-15T07:15:00.886Z,996.93
2019-03-15T07:16:00.914Z,996.89
2019-03-15T07:17:00.861Z,996.94
2019-03-15T07:18:00.912Z,996.91
2019-03-15T07:19:00.845Z,996.89
2019-03-15T07:20:00.929Z,996.83
2019-03-15T07:21:00.815Z,996.85
2019-03-15T07:22:00.834Z,996.82
2019-03-15T07:23:00.792Z,996.79
2019-03-15T07:24:00.884Z,996.76
2019-03-15T07:25:00.772Z,996.75
2019-03-15T07:26:02.814Z,996.80
2019-03-15T07:27:12.156Z,996.76
2019-03-15T07:28:01.747Z,996.76
2019-03-15T07:29:00.810Z,996.78
2019-03-15T07:30:00.738Z,996.67
2019-03-15T07:31:00.798Z,996.65
2019-03-15T07:32:00.698Z,996.71
2019-03-15T07:33:00.763Z,996.69
2019-03-15T07:34:00.686Z,996.76
2019-03-15T07:35:00.738Z,996.69
2019-03-15T07:36:00.676Z,996.68
2019-03-15T07:37:00.731Z,996.66
2019-03-15T07:38:00.651Z,996.68
2019-03-15T07:39:00.674Z,996.60
2019-03-15T07:40:00.610Z,996.64
2019-03-15T07:41:00.701Z,996.66
2019-03-15T07:42:00.616Z,996.59
2019-03-15T07:43:03.594Z,996.52
2019-03-15T07:44:00.575Z,996.61
2019-03-15T07:45:02.660Z,996.59
2019-03-15T07:46:00.564Z,996.47
2019-03-15T07:47:02.667Z,996.54
2019-03-15T07:48:00.538Z,996.47
2019-03-15T07:49:01.565Z,996.43
2019-03-15T07:50:00.522Z,996.37
2019-03-15T07:51:00.542Z,996.43
2019-03-15T07:52:03.725Z,996.35
2019-03-15T07:53:00.535Z,996.48
2019-03-15T07:54:00.454Z,996.36
2019-03-15T07:55:00.718Z,996.36
2019-03-15T07:56:00.441Z,996.41
2019-03-15T07:57:00.461Z,996.44
2019-03-15T07:58:00.410Z,996.47
2019-03-15T07:59:01.124Z,996.49
2019-03-15T08:00:00.400Z,996.45
2019-03-15T08:01:00.495Z,996.46
2019-03-15T08:02:00.374Z,996.45
2019-03-15T08:03:00.400Z,996.40
2019-03-15T08:04:00.348Z,996.37
2019-03-15T08:05:00.469Z,996.37
2019-03-15T08:06:00.326Z,996.34
2019-03-15T08:07:00.326Z,996.38
2019-03-15T08:08:00.300Z,996.31
2019-03-15T08:09:00.336Z,996.32
2019-03-15T08:10:00.314Z,996.33
2019-03-15T08:11:00.354Z,996.35
2019-03-15T08:12:00.322Z,996.30
2019-03-15T08:13:00.282Z,996.26
2019-03-15T08:14:00.253Z,996.28
2019-03-15T08:15:00.364Z,996.28
2019-03-15T08:16:00.222Z,996.25
2019-03-15T08:17:00.293Z,996.34
2019-03-15T08:18:00.190Z,996.29
2019-03-15T08:19:00.213Z,996.33
2019-03-15T08:20:00.489Z,996.32
2019-03-15T08:21:00.216Z,996.36
2019-03-15T08:22:00.158Z,996.32
2019-03-15T08:23:00.228Z,996.35
2019-03-15T08:24:00.126Z,996.32
2019-03-15T08:25:00.255Z,996.23
2019-03-15T08:26:00.134Z,996.28
2019-03-15T08:27:00.161Z,996.21
2019-03-15T08:28:00.081Z,996.22
2019-03-15T08:29:02.113Z,996.21
2019-03-15T08:30:00.111Z,996.18
2019-03-15T08:31:02.135Z,996.26
2019-03-15T08:32:00.037Z,996.15
2019-03-15T08:33:09.976Z,996.25
2019-03-15T08:34:01.024Z,996.25
2019-03-15T08:35:03.527Z,996.23
2019-03-15T08:35:59.998Z,996.23
2019-03-15T08:37:00.038Z,996.24
2019-03-15T08:37:59.995Z,996.22
2019-03-15T08:39:00.034Z,996.19
2019-03-15T08:39:59.962Z,996.19
2019-03-15T08:41:00.049Z,996.19
2019-03-15T08:41:59.926Z,996.16
2019-03-15T08:42:59.957Z,996.21
2019-03-15T08:43:59.907Z,996.17
2019-03-15T08:45:00.005Z,996.16
2019-03-15T08:46:02.814Z,996.15
2019-03-15T08:46:59.982Z,996.06
2019-03-15T08:47:59.883Z,996.03
2019-03-15T08:48:59.895Z,996.02
2019-03-15T08:49:59.881Z,995.99
2019-03-15T08:50:59.910Z,995.92
2019-03-15T08:52:04.024Z,995.89
2019-03-15T08:52:59.822Z,995.85
2019-03-15T08:53:59.832Z,995.82
2019-03-15T08:55:05.185Z,995.82
2019-03-15T08:56:00.777Z,995.81
2019-03-15T08:56:59.847Z,995.82
2019-03-15T08:58:13.020Z,995.76
2019-03-15T08:59:00.747Z,995.75
2019-03-15T08:59:59.805Z,995.83
2019-03-15T09:00:59.746Z,995.81
2019-03-15T09:01:59.784Z,995.85
2019-03-15T09:02:59.697Z,995.90
2019-03-15T09:03:59.793Z,995.92
2019-03-15T09:04:59.711Z,995.87
2019-03-15T09:05:59.678Z,995.76
2019-03-15T09:06:59.656Z,995.86
2019-03-15T09:07:59.716Z,995.78
2019-03-15T09:08:59.631Z,995.81
2019-03-15T09:10:03.162Z,995.81
2019-03-15T09:10:59.615Z,995.77
2019-03-15T09:11:59.650Z,995.82
2019-03-15T09:12:59.594Z,995.71
2019-03-15T09:13:59.662Z,995.69
2019-03-15T09:14:59.585Z,995.70
2019-03-15T09:15:59.649Z,995.71
2019-03-15T09:16:59.573Z,995.68
2019-03-15T09:18:07.057Z,995.69
2019-03-15T09:18:59.549Z,995.72
2019-03-15T09:20:00.625Z,995.72
2019-03-15T09:20:59.511Z,995.66
2019-03-15T09:22:00.769Z,995.63
2019-03-15T09:22:59.523Z,995.66
2019-03-15T09:23:59.575Z,995.59
2019-03-15T09:24:59.513Z,995.58
2019-03-15T09:26:00.489Z,995.62
2019-03-15T09:26:59.453Z,995.66
2019-03-15T09:27:59.463Z,995.61
2019-03-15T09:28:59.457Z,995.60
2019-03-15T09:29:59.463Z,995.58
2019-03-15T09:30:59.452Z,995.53
2019-03-15T09:32:06.232Z,995.54
2019-03-15T09:33:02.978Z,995.51
2019-03-15T09:33:59.414Z,995.52
2019-03-15T09:34:59.380Z,995.55
2019-03-15T09:35:59.547Z,995.55
2019-03-15T09:36:59.340Z,995.50
2019-03-15T09:37:59.415Z,995.45
2019-03-15T09:38:59.301Z,995.43
2019-03-15T09:39:59.322Z,995.46
2019-03-15T09:40:59.291Z,995.42
2019-03-15T09:41:59.335Z,995.36
2019-03-15T09:42:59.959Z,995.40
2019-03-15T09:43:59.349Z,995.43
2019-03-15T09:44:59.236Z,995.38
2019-03-15T09:45:59.299Z,995.25
2019-03-15T09:47:02.349Z,995.27
2019-03-15T09:47:59.274Z,995.27
2019-03-15T09:48:59.891Z,995.14
2019-03-15T09:49:59.290Z,995.12
2019-03-15T09:50:59.181Z,995.13
2019-03-15T09:51:59.199Z,995.08
2019-03-15T09:52:59.148Z,995.11
2019-03-15T09:53:59.214Z,995.19
2019-03-15T09:54:59.128Z,995.13
2019-03-15T09:55:59.168Z,995.08
2019-03-15T09:56:59.104Z,995.01
2019-03-15T09:57:59.138Z,994.98
2019-03-15T09:58:59.086Z,995.01
2019-03-15T10:00:00.405Z,994.99
2019-03-15T10:00:59.143Z,995.00
2019-03-15T10:01:59.063Z,994.90
2019-03-15T10:02:59.042Z,994.90
2019-03-15T10:04:06.552Z,994.86
2019-03-15T10:05:10.191Z,994.74
2019-03-15T10:06:14.006Z,994.80
2019-03-15T10:06:59.993Z,994.78
2019-03-15T10:07:59.003Z,994.69
2019-03-15T10:08:58.976Z,994.64
2019-03-15T10:10:12.523Z,994.65
2019-03-15T10:10:59.962Z,994.61
2019-03-15T10:11:59.057Z,994.56
2019-03-15T10:13:05.903Z,994.65
2019-03-15T10:14:02.234Z,994.54
2019-03-15T10:14:58.907Z,994.52
2019-03-15T10:15:58.993Z,994.47
2019-03-15T10:16:58.888Z,994.49
2019-03-15T10:17:58.969Z,994.43
2019-03-15T10:18:58.863Z,994.44
2019-03-15T10:19:58.880Z,994.41
2019-03-15T10:20:58.854Z,994.35
2019-03-15T10:21:58.996Z,994.33
2019-03-15T10:23:05.955Z,994.38
2019-03-15T10:23:59.828Z,994.22
2019-03-15T10:24:58.799Z,994.32
2019-03-15T10:25:58.805Z,994.29
2019-03-15T10:26:58.775Z,994.16
2019-03-15T10:27:58.789Z,994.21
2019-03-15T10:28:58.757Z,994.32
2019-03-15T10:29:58.847Z,994.24
2019-03-15T10:30:58.742Z,994.22
2019-03-15T10:31:58.757Z,994.24
2019-03-15T10:32:58.709Z,994.21
2019-03-15T10:33:58.775Z,994.14
2019-03-15T10:34:58.694Z,994.03
2019-03-15T10:35:58.785Z,993.99
2019-03-15T10:36:58.679Z,994.05
2019-03-15T10:37:58.697Z,994.03
2019-03-15T10:38:58.646Z,994.03
2019-03-15T10:39:58.711Z,993.99
2019-03-15T10:41:01.148Z,993.96
2019-03-15T10:41:58.661Z,993.96
2019-03-15T10:42:58.599Z,994.01
2019-03-15T10:43:58.639Z,994.09
2019-03-15T10:44:58.580Z,994.15
2019-03-15T10:45:58.662Z,994.07
2019-03-15T10:46:58.569Z,993.89
2019-03-15T10:47:58.562Z,993.85
2019-03-15T10:48:58.534Z,993.65
2019-03-15T10:50:06.153Z,993.61
2019-03-15T10:50:58.513Z,993.71
2019-03-15T10:51:59.540Z,993.81
2019-03-15T10:52:58.488Z,994.01
2019-03-15T10:53:58.500Z,994.02
2019-03-15T10:54:58.468Z,994.01
2019-03-15T10:56:00.480Z,994.05
2019-03-15T10:56:58.459Z,994.03
2019-03-15T10:57:58.527Z,993.81
2019-03-15T10:58:58.425Z,993.80
2019-03-15T10:59:58.438Z,993.72
2019-03-15T11:00:58.403Z,993.80
2019-03-15T11:01:58.488Z,993.81
2019-03-15T11:02:58.394Z,993.70
2019-03-15T11:03:58.513Z,993.75
2019-03-15T11:04:58.358Z,993.79
2019-03-15T11:05:58.377Z,993.69
2019-03-15T11:06:58.349Z,993.57
2019-03-15T11:07:58.342Z,993.54
2019-03-15T11:08:58.319Z,993.59
2019-03-15T11:09:58.410Z,993.59
2019-03-15T11:10:58.300Z,993.62
2019-03-15T11:11:58.345Z,993.60
2019-03-15T11:12:58.272Z,993.70
2019-03-15T11:13:58.330Z,993.79
2019-03-15T11:14:58.249Z,993.68
2019-03-15T11:15:58.346Z,993.70
2019-03-15T11:16:58.240Z,993.72
2019-03-15T11:17:58.253Z,993.62
2019-03-15T11:18:58.204Z,993.74
2019-03-15T11:19:58.267Z,993.72
2019-03-15T11:20:58.212Z,993.74
2019-03-15T11:21:58.210Z,993.73
2019-03-15T11:22:58.160Z,993.74
2019-03-15T11:23:58.194Z,993.74
2019-03-15T11:24:58.140Z,993.83
2019-03-15T11:25:58.207Z,993.80
2019-03-15T11:26:58.132Z,993.76
2019-03-15T11:27:58.121Z,993.73
2019-03-15T11:28:58.095Z,993.66
2019-03-15T11:30:00.418Z,993.73
2019-03-15T11:31:00.599Z,993.69
2019-03-15T11:31:59.097Z,993.61
2019-03-15T11:32:58.053Z,993.62
2019-03-15T11:33:58.057Z,993.61
2019-03-15T11:34:58.034Z,993.66
2019-03-15T11:35:58.077Z,993.66
2019-03-15T11:36:58.759Z,993.56
2019-03-15T11:38:00.029Z,993.54
2019-03-15T11:38:57.996Z,993.58
2019-03-15T11:39:57.995Z,993.50
2019-03-15T11:40:57.965Z,993.52
2019-03-15T11:41:59.063Z,993.66
2019-03-15T11:42:57.945Z,993.56
2019-03-15T11:43:58.023Z,993.50
2019-03-15T11:44:57.922Z,993.47
2019-03-15T11:45:57.934Z,993.38
2019-03-15T11:46:57.928Z,993.53
2019-03-15T11:48:04.751Z,993.45
2019-03-15T11:48:58.876Z,993.43
2019-03-15T11:49:57.963Z,993.25
2019-03-15T11:50:57.855Z,993.41
2019-03-15T11:51:57.903Z,993.32
2019-03-15T11:52:57.834Z,993.11
2019-03-15T11:53:57.889Z,993.30
2019-03-15T11:54:57.813Z,993.22
2019-03-15T11:55:57.901Z,993.28
2019-03-15T11:56:57.805Z,993.18
2019-03-15T11:57:57.816Z,993.08
2019-03-15T11:58:57.772Z,992.83
2019-03-15T11:59:57.830Z,993.10
2019-03-15T12:00:57.754Z,993.13
2019-03-15T12:02:03.920Z,993.28
2019-03-15T12:02:59.147Z,993.08
2019-03-15T12:03:57.752Z,993.10
2019-03-15T12:04:57.703Z,993.06
2019-03-15T12:05:57.766Z,993.14
2019-03-15T12:06:57.680Z,993.22
2019-03-15T12:07:57.704Z,993.13
2019-03-15T12:08:57.658Z,993.00
2019-03-15T12:09:57.692Z,993.16
2019-03-15T12:10:57.636Z,993.05
2019-03-15T12:11:57.704Z,993.04
2019-03-15T12:12:57.632Z,993.06
2019-03-15T12:13:57.716Z,992.98
2019-03-15T12:14:57.592Z,993.09
2019-03-15T12:16:04.620Z,993.03
2019-03-15T12:16:57.574Z,992.97
2019-03-15T12:17:58.751Z,992.85
2019-03-15T12:18:57.548Z,992.94
2019-03-15T12:19:57.553Z,993.11
2019-03-15T12:20:57.526Z,993.16
2019-03-15T12:22:06.248Z,992.97
2019-03-15T12:22:58.696Z,993.13
2019-03-15T12:23:57.517Z,993.11
2019-03-15T12:24:57.484Z,993.22
2019-03-15T12:25:57.477Z,993.24
2019-03-15T12:26:57.493Z,993.09
2019-03-15T12:27:57.470Z,993.09
2019-03-15T12:28:57.450Z,993.16
2019-03-15T12:29:57.436Z,993.15